Alviso, California
Current Conditions -  °F | °C
As of 3:56 PM on Saturday 22 Nov 2014 (Local Time) from KNUQ Reporting Station
Clear Clear  
Wind Chill: 65°   Ceiling: Unl
Heat Index: 65°   Visibility: 10mi
Dew Point: 55°   Wind: 8mph
Humidity: 70%   Direction: 320°NW
Pressure: 30.14"   Gusts: NA
Location:  37.43°N, 121.97°W
Report Text: KNUQ 222356Z 32007KT 10SM CLR 18/13 A3014 RMK AO2 SLP209 60000 T01830128 10200 20150 53004
Loading
Personal Weather Stations






























Interactive Weather Map New forecast layout! Learn more

10-Day Weather Forecast

Advertisements
Track Severe Weather on mobile